sensor_id;sensor_type;location;lat;lon;timestamp;P1;durP1;ratioP1;P2;durP2;ratioP2
19436;SDS011;9854;50.968;4.168;2023-08-08T00:00:51;6.47;;;2.50;;
19436;SDS011;9854;50.968;4.168;2023-08-08T00:03:17;7.10;;;2.28;;
19436;SDS011;9854;50.968;4.168;2023-08-08T00:05:42;4.38;;;2.30;;
19436;SDS011;9854;50.968;4.168;2023-08-08T00:08:08;7.45;;;2.67;;
19436;SDS011;9854;50.968;4.168;2023-08-08T00:10:34;7.30;;;2.78;;
19436;SDS011;9854;50.968;4.168;2023-08-08T00:12:59;12.50;;;2.95;;
19436;SDS011;9854;50.968;4.168;2023-08-08T00:15:25;8.15;;;2.70;;
19436;SDS011;9854;50.968;4.168;2023-08-08T00:17:50;7.47;;;2.50;;
19436;SDS011;9854;50.968;4.168;2023-08-08T00:20:16;9.13;;;2.88;;
19436;SDS011;9854;50.968;4.168;2023-08-08T00:22:42;6.95;;;3.05;;
19436;SDS011;9854;50.968;4.168;2023-08-08T00:25:07;7.70;;;2.75;;
19436;SDS011;9854;50.968;4.168;2023-08-08T00:27:33;7.85;;;3.20;;
19436;SDS011;9854;50.968;4.168;2023-08-08T00:29:59;9.80;;;2.78;;
19436;SDS011;9854;50.968;4.168;2023-08-08T00:32:25;11.15;;;2.80;;
19436;SDS011;9854;50.968;4.168;2023-08-08T00:34:51;11.73;;;3.00;;
19436;SDS011;9854;50.968;4.168;2023-08-08T00:37:17;10.95;;;3.72;;
19436;SDS011;9854;50.968;4.168;2023-08-08T00:39:42;8.38;;;2.85;;
19436;SDS011;9854;50.968;4.168;2023-08-08T00:42:11;12.00;;;3.72;;
19436;SDS011;9854;50.968;4.168;2023-08-08T00:44:37;9.50;;;3.17;;
19436;SDS011;9854;50.968;4.168;2023-08-08T00:47:03;12.18;;;3.80;;
19436;SDS011;9854;50.968;4.168;2023-08-08T00:49:29;11.60;;;3.85;;
19436;SDS011;9854;50.968;4.168;2023-08-08T00:51:55;6.25;;;3.17;;
19436;SDS011;9854;50.968;4.168;2023-08-08T00:54:20;6.95;;;3.10;;
19436;SDS011;9854;50.968;4.168;2023-08-08T00:56:46;10.65;;;3.28;;
19436;SDS011;9854;50.968;4.168;2023-08-08T00:59:12;9.32;;;3.10;;
19436;SDS011;9854;50.968;4.168;2023-08-08T01:01:40;8.30;;;3.35;;
19436;SDS011;9854;50.968;4.168;2023-08-08T01:04:06;10.93;;;3.03;;
19436;SDS011;9854;50.968;4.168;2023-08-08T01:06:37;7.65;;;3.00;;
19436;SDS011;9854;50.968;4.168;2023-08-08T01:11:54;13.48;;;2.95;;
19436;SDS011;9854;50.968;4.168;2023-08-08T01:14:22;9.35;;;3.20;;
19436;SDS011;9854;50.968;4.168;2023-08-08T01:16:52;11.55;;;3.40;;
19436;SDS011;9854;50.968;4.168;2023-08-08T01:19:23;11.32;;;3.38;;
19436;SDS011;9854;50.968;4.168;2023-08-08T01:21:53;12.70;;;3.25;;
19436;SDS011;9854;50.968;4.168;2023-08-08T01:24:22;8.52;;;3.58;;
19436;SDS011;9854;50.968;4.168;2023-08-08T01:26:52;12.85;;;3.58;;
19436;SDS011;9854;50.968;4.168;2023-08-08T01:29:18;12.25;;;4.13;;
19436;SDS011;9854;50.968;4.168;2023-08-08T01:31:44;16.40;;;3.63;;
19436;SDS011;9854;50.968;4.168;2023-08-08T01:34:10;9.52;;;3.33;;
19436;SDS011;9854;50.968;4.168;2023-08-08T01:36:45;16.63;;;3.95;;
19436;SDS011;9854;50.968;4.168;2023-08-08T01:39:13;13.10;;;4.20;;
19436;SDS011;9854;50.968;4.168;2023-08-08T01:41:41;16.45;;;4.18;;
19436;SDS011;9854;50.968;4.168;2023-08-08T01:44:09;18.70;;;4.18;;
19436;SDS011;9854;50.968;4.168;2023-08-08T01:46:36;23.35;;;4.38;;
19436;SDS011;9854;50.968;4.168;2023-08-08T01:49:03;14.50;;;4.25;;
19436;SDS011;9854;50.968;4.168;2023-08-08T01:51:29;12.50;;;4.13;;
19436;SDS011;9854;50.968;4.168;2023-08-08T01:53:54;13.13;;;4.35;;
19436;SDS011;9854;50.968;4.168;2023-08-08T01:56:20;16.10;;;4.55;;
19436;SDS011;9854;50.968;4.168;2023-08-08T01:58:46;13.13;;;4.40;;
19436;SDS011;9854;50.968;4.168;2023-08-08T02:01:12;18.58;;;4.40;;
19436;SDS011;9854;50.968;4.168;2023-08-08T02:03:38;19.63;;;4.38;;
19436;SDS011;9854;50.968;4.168;2023-08-08T02:06:03;16.02;;;4.25;;
19436;SDS011;9854;50.968;4.168;2023-08-08T02:08:29;13.90;;;4.78;;
19436;SDS011;9854;50.968;4.168;2023-08-08T02:10:54;18.15;;;4.30;;
19436;SDS011;9854;50.968;4.168;2023-08-08T02:13:20;13.35;;;3.97;;
19436;SDS011;9854;50.968;4.168;2023-08-08T02:15:46;17.50;;;4.60;;
19436;SDS011;9854;50.968;4.168;2023-08-08T02:18:11;14.75;;;4.55;;
19436;SDS011;9854;50.968;4.168;2023-08-08T02:20:37;14.43;;;4.75;;
19436;SDS011;9854;50.968;4.168;2023-08-08T02:23:02;13.27;;;4.30;;
19436;SDS011;9854;50.968;4.168;2023-08-08T02:25:28;17.23;;;4.47;;
19436;SDS011;9854;50.968;4.168;2023-08-08T02:27:55;18.48;;;5.07;;
19436;SDS011;9854;50.968;4.168;2023-08-08T02:30:21;18.27;;;4.70;;
19436;SDS011;9854;50.968;4.168;2023-08-08T02:32:47;16.90;;;4.57;;
19436;SDS011;9854;50.968;4.168;2023-08-08T02:35:13;19.02;;;4.70;;
19436;SDS011;9854;50.968;4.168;2023-08-08T02:37:39;15.30;;;5.15;;
19436;SDS011;9854;50.968;4.168;2023-08-08T02:40:05;14.05;;;4.38;;
19436;SDS011;9854;50.968;4.168;2023-08-08T02:42:31;17.63;;;4.20;;
19436;SDS011;9854;50.968;4.168;2023-08-08T02:44:56;10.82;;;4.05;;
19436;SDS011;9854;50.968;4.168;2023-08-08T02:47:22;13.95;;;4.15;;
19436;SDS011;9854;50.968;4.168;2023-08-08T02:49:48;18.30;;;5.18;;
19436;SDS011;9854;50.968;4.168;2023-08-08T02:52:14;21.02;;;4.63;;
19436;SDS011;9854;50.968;4.168;2023-08-08T02:54:40;17.63;;;4.47;;
19436;SDS011;9854;50.968;4.168;2023-08-08T02:57:05;16.30;;;4.32;;
19436;SDS011;9854;50.968;4.168;2023-08-08T02:59:31;22.40;;;5.10;;
19436;SDS011;9854;50.968;4.168;2023-08-08T03:01:56;20.05;;;5.05;;
19436;SDS011;9854;50.968;4.168;2023-08-08T03:04:22;16.08;;;4.53;;
19436;SDS011;9854;50.968;4.168;2023-08-08T03:06:48;17.23;;;4.75;;
19436;SDS011;9854;50.968;4.168;2023-08-08T03:09:13;17.52;;;4.80;;
19436;SDS011;9854;50.968;4.168;2023-08-08T03:11:39;15.40;;;4.45;;
19436;SDS011;9854;50.968;4.168;2023-08-08T03:14:07;20.15;;;5.38;;
19436;SDS011;9854;50.968;4.168;2023-08-08T03:16:34;19.38;;;4.90;;
19436;SDS011;9854;50.968;4.168;2023-08-08T03:18:59;18.40;;;5.10;;
19436;SDS011;9854;50.968;4.168;2023-08-08T03:21:25;14.93;;;4.95;;
19436;SDS011;9854;50.968;4.168;2023-08-08T03:23:50;22.55;;;5.97;;
19436;SDS011;9854;50.968;4.168;2023-08-08T03:26:16;18.13;;;5.20;;
19436;SDS011;9854;50.968;4.168;2023-08-08T03:28:41;21.13;;;5.35;;
19436;SDS011;9854;50.968;4.168;2023-08-08T03:31:07;16.92;;;5.75;;
19436;SDS011;9854;50.968;4.168;2023-08-08T03:33:33;17.60;;;5.05;;
19436;SDS011;9854;50.968;4.168;2023-08-08T03:35:58;14.52;;;5.15;;
19436;SDS011;9854;50.968;4.168;2023-08-08T03:38:24;23.23;;;5.40;;
19436;SDS011;9854;50.968;4.168;2023-08-08T03:40:50;17.42;;;5.38;;
19436;SDS011;9854;50.968;4.168;2023-08-08T03:43:16;14.23;;;4.90;;
19436;SDS011;9854;50.968;4.168;2023-08-08T03:45:41;22.15;;;6.18;;
19436;SDS011;9854;50.968;4.168;2023-08-08T03:48:07;22.17;;;4.90;;
19436;SDS011;9854;50.968;4.168;2023-08-08T03:50:32;15.48;;;5.30;;
19436;SDS011;9854;50.968;4.168;2023-08-08T03:52:58;20.98;;;5.07;;
19436;SDS011;9854;50.968;4.168;2023-08-08T03:55:24;17.05;;;5.65;;
19436;SDS011;9854;50.968;4.168;2023-08-08T03:57:50;19.23;;;5.93;;
19436;SDS011;9854;50.968;4.168;2023-08-08T04:00:16;24.48;;;5.90;;
19436;SDS011;9854;50.968;4.168;2023-08-08T04:02:42;14.77;;;5.57;;
19436;SDS011;9854;50.968;4.168;2023-08-08T04:05:07;19.90;;;6.05;;
19436;SDS011;9854;50.968;4.168;2023-08-08T04:07:33;17.33;;;5.68;;
19436;SDS011;9854;50.968;4.168;2023-08-08T04:09:59;20.73;;;6.22;;
19436;SDS011;9854;50.968;4.168;2023-08-08T04:12:25;19.83;;;6.10;;
19436;SDS011;9854;50.968;4.168;2023-08-08T04:14:51;20.00;;;6.28;;
19436;SDS011;9854;50.968;4.168;2023-08-08T04:17:17;18.23;;;5.97;;
19436;SDS011;9854;50.968;4.168;2023-08-08T04:19:42;17.17;;;5.68;;
19436;SDS011;9854;50.968;4.168;2023-08-08T04:22:08;23.73;;;6.57;;
19436;SDS011;9854;50.968;4.168;2023-08-08T04:24:34;16.27;;;5.90;;
19436;SDS011;9854;50.968;4.168;2023-08-08T04:26:59;15.85;;;6.70;;
19436;SDS011;9854;50.968;4.168;2023-08-08T04:29:25;19.50;;;6.85;;
19436;SDS011;9854;50.968;4.168;2023-08-08T04:31:50;20.13;;;6.35;;
19436;SDS011;9854;50.968;4.168;2023-08-08T04:34:17;19.20;;;6.45;;
19436;SDS011;9854;50.968;4.168;2023-08-08T04:36:42;20.70;;;5.72;;
19436;SDS011;9854;50.968;4.168;2023-08-08T04:39:08;18.58;;;6.10;;
19436;SDS011;9854;50.968;4.168;2023-08-08T04:41:33;23.38;;;6.30;;
19436;SDS011;9854;50.968;4.168;2023-08-08T04:43:59;14.63;;;6.30;;
19436;SDS011;9854;50.968;4.168;2023-08-08T04:46:25;21.27;;;6.55;;
19436;SDS011;9854;50.968;4.168;2023-08-08T04:48:50;15.60;;;6.00;;
19436;SDS011;9854;50.968;4.168;2023-08-08T04:51:16;17.98;;;6.47;;
19436;SDS011;9854;50.968;4.168;2023-08-08T04:53:41;21.77;;;6.45;;
19436;SDS011;9854;50.968;4.168;2023-08-08T04:56:07;17.10;;;5.85;;
19436;SDS011;9854;50.968;4.168;2023-08-08T04:58:33;24.60;;;6.32;;
19436;SDS011;9854;50.968;4.168;2023-08-08T05:00:58;26.17;;;6.55;;
19436;SDS011;9854;50.968;4.168;2023-08-08T05:03:24;27.95;;;6.78;;
19436;SDS011;9854;50.968;4.168;2023-08-08T05:05:49;22.02;;;6.63;;
19436;SDS011;9854;50.968;4.168;2023-08-08T05:08:16;16.13;;;6.82;;
19436;SDS011;9854;50.968;4.168;2023-08-08T05:10:42;18.85;;;7.05;;
19436;SDS011;9854;50.968;4.168;2023-08-08T05:13:08;28.65;;;7.20;;
19436;SDS011;9854;50.968;4.168;2023-08-08T05:15:34;21.85;;;6.18;;
19436;SDS011;9854;50.968;4.168;2023-08-08T05:18:00;19.90;;;5.95;;
19436;SDS011;9854;50.968;4.168;2023-08-08T05:20:25;17.50;;;5.97;;
19436;SDS011;9854;50.968;4.168;2023-08-08T05:22:51;32.03;;;7.32;;
19436;SDS011;9854;50.968;4.168;2023-08-08T05:25:16;18.15;;;6.38;;
19436;SDS011;9854;50.968;4.168;2023-08-08T05:27:42;18.02;;;6.78;;
19436;SDS011;9854;50.968;4.168;2023-08-08T05:30:08;19.13;;;6.63;;
19436;SDS011;9854;50.968;4.168;2023-08-08T05:32:34;18.88;;;6.05;;
19436;SDS011;9854;50.968;4.168;2023-08-08T05:34:59;20.05;;;6.65;;
19436;SDS011;9854;50.968;4.168;2023-08-08T05:37:26;15.70;;;6.35;;
19436;SDS011;9854;50.968;4.168;2023-08-08T05:39:51;24.20;;;6.47;;
19436;SDS011;9854;50.968;4.168;2023-08-08T05:42:18;22.38;;;6.10;;
19436;SDS011;9854;50.968;4.168;2023-08-08T05:44:44;21.15;;;6.50;;
19436;SDS011;9854;50.968;4.168;2023-08-08T05:47:10;21.35;;;6.30;;
19436;SDS011;9854;50.968;4.168;2023-08-08T05:49:36;18.02;;;5.82;;
19436;SDS011;9854;50.968;4.168;2023-08-08T05:52:03;14.10;;;5.45;;
19436;SDS011;9854;50.968;4.168;2023-08-08T05:54:28;24.00;;;6.43;;
19436;SDS011;9854;50.968;4.168;2023-08-08T05:56:54;23.67;;;6.45;;
19436;SDS011;9854;50.968;4.168;2023-08-08T05:59:20;22.23;;;5.65;;
19436;SDS011;9854;50.968;4.168;2023-08-08T06:01:45;21.13;;;5.50;;
19436;SDS011;9854;50.968;4.168;2023-08-08T06:04:11;23.98;;;6.50;;
19436;SDS011;9854;50.968;4.168;2023-08-08T06:06:38;24.17;;;6.30;;
19436;SDS011;9854;50.968;4.168;2023-08-08T06:09:04;21.92;;;6.90;;
19436;SDS011;9854;50.968;4.168;2023-08-08T06:11:30;16.13;;;6.03;;
19436;SDS011;9854;50.968;4.168;2023-08-08T06:13:55;19.55;;;5.63;;
19436;SDS011;9854;50.968;4.168;2023-08-08T06:16:21;22.08;;;6.30;;
19436;SDS011;9854;50.968;4.168;2023-08-08T06:18:47;23.17;;;6.05;;
19436;SDS011;9854;50.968;4.168;2023-08-08T06:21:13;17.40;;;5.80;;
19436;SDS011;9854;50.968;4.168;2023-08-08T06:23:39;22.33;;;5.57;;
19436;SDS011;9854;50.968;4.168;2023-08-08T06:26:04;17.23;;;5.68;;
19436;SDS011;9854;50.968;4.168;2023-08-08T06:28:31;16.95;;;5.50;;
19436;SDS011;9854;50.968;4.168;2023-08-08T06:30:57;19.08;;;5.22;;
19436;SDS011;9854;50.968;4.168;2023-08-08T06:33:23;13.85;;;4.95;;
19436;SDS011;9854;50.968;4.168;2023-08-08T06:35:49;23.20;;;5.65;;
19436;SDS011;9854;50.968;4.168;2023-08-08T06:38:15;23.17;;;5.13;;
19436;SDS011;9854;50.968;4.168;2023-08-08T06:40:40;16.02;;;4.75;;
19436;SDS011;9854;50.968;4.168;2023-08-08T06:43:06;15.45;;;4.57;;
19436;SDS011;9854;50.968;4.168;2023-08-08T06:45:32;12.93;;;4.13;;
19436;SDS011;9854;50.968;4.168;2023-08-08T06:47:57;18.25;;;5.03;;
19436;SDS011;9854;50.968;4.168;2023-08-08T06:50:23;16.13;;;5.43;;
19436;SDS011;9854;50.968;4.168;2023-08-08T06:52:49;18.23;;;5.05;;
19436;SDS011;9854;50.968;4.168;2023-08-08T06:55:15;16.33;;;4.63;;
19436;SDS011;9854;50.968;4.168;2023-08-08T06:57:41;15.93;;;4.43;;
19436;SDS011;9854;50.968;4.168;2023-08-08T07:00:07;10.50;;;3.97;;
19436;SDS011;9854;50.968;4.168;2023-08-08T07:02:33;12.02;;;3.33;;
19436;SDS011;9854;50.968;4.168;2023-08-08T07:04:59;12.57;;;4.15;;
19436;SDS011;9854;50.968;4.168;2023-08-08T07:07:25;17.58;;;3.88;;
19436;SDS011;9854;50.968;4.168;2023-08-08T07:09:50;17.38;;;4.57;;
19436;SDS011;9854;50.968;4.168;2023-08-08T07:12:16;14.35;;;4.03;;
19436;SDS011;9854;50.968;4.168;2023-08-08T07:14:42;13.68;;;3.97;;
19436;SDS011;9854;50.968;4.168;2023-08-08T07:17:07;17.25;;;3.58;;
19436;SDS011;9854;50.968;4.168;2023-08-08T07:19:33;13.90;;;3.67;;
19436;SDS011;9854;50.968;4.168;2023-08-08T07:22:01;14.10;;;3.78;;
19436;SDS011;9854;50.968;4.168;2023-08-08T07:24:27;12.25;;;3.08;;
19436;SDS011;9854;50.968;4.168;2023-08-08T07:26:54;10.88;;;3.72;;
19436;SDS011;9854;50.968;4.168;2023-08-08T07:29:23;11.38;;;3.30;;
19436;SDS011;9854;50.968;4.168;2023-08-08T07:31:50;12.77;;;3.20;;
19436;SDS011;9854;50.968;4.168;2023-08-08T07:34:19;11.07;;;3.40;;
19436;SDS011;9854;50.968;4.168;2023-08-08T07:36:45;10.82;;;3.47;;
19436;SDS011;9854;50.968;4.168;2023-08-08T07:39:12;10.93;;;2.80;;
19436;SDS011;9854;50.968;4.168;2023-08-08T07:41:37;13.45;;;3.38;;
19436;SDS011;9854;50.968;4.168;2023-08-08T07:44:04;9.15;;;2.88;;
19436;SDS011;9854;50.968;4.168;2023-08-08T07:46:30;10.98;;;3.03;;
19436;SDS011;9854;50.968;4.168;2023-08-08T07:48:56;13.60;;;3.08;;
19436;SDS011;9854;50.968;4.168;2023-08-08T07:51:24;11.98;;;3.80;;
19436;SDS011;9854;50.968;4.168;2023-08-08T07:53:50;10.98;;;3.65;;
19436;SDS011;9854;50.968;4.168;2023-08-08T07:56:15;16.70;;;3.45;;
19436;SDS011;9854;50.968;4.168;2023-08-08T07:58:41;12.85;;;3.92;;
19436;SDS011;9854;50.968;4.168;2023-08-08T08:01:07;13.25;;;4.07;;
19436;SDS011;9854;50.968;4.168;2023-08-08T08:03:32;13.80;;;3.67;;
19436;SDS011;9854;50.968;4.168;2023-08-08T08:05:58;14.40;;;3.75;;
19436;SDS011;9854;50.968;4.168;2023-08-08T08:08:23;10.52;;;3.63;;
19436;SDS011;9854;50.968;4.168;2023-08-08T08:10:49;11.80;;;4.15;;
19436;SDS011;9854;50.968;4.168;2023-08-08T08:13:16;17.00;;;3.58;;
19436;SDS011;9854;50.968;4.168;2023-08-08T08:15:42;18.30;;;4.53;;
19436;SDS011;9854;50.968;4.168;2023-08-08T08:18:08;12.85;;;3.75;;
19436;SDS011;9854;50.968;4.168;2023-08-08T08:20:34;12.48;;;4.28;;
19436;SDS011;9854;50.968;4.168;2023-08-08T08:22:59;10.50;;;2.78;;
19436;SDS011;9854;50.968;4.168;2023-08-08T08:25:25;12.65;;;3.67;;
19436;SDS011;9854;50.968;4.168;2023-08-08T08:27:51;14.02;;;3.25;;
19436;SDS011;9854;50.968;4.168;2023-08-08T08:30:16;14.63;;;3.60;;
19436;SDS011;9854;50.968;4.168;2023-08-08T08:32:43;10.82;;;3.20;;
19436;SDS011;9854;50.968;4.168;2023-08-08T08:35:09;15.68;;;3.60;;
19436;SDS011;9854;50.968;4.168;2023-08-08T08:37:34;9.75;;;3.05;;
19436;SDS011;9854;50.968;4.168;2023-08-08T08:40:00;10.95;;;3.13;;
19436;SDS011;9854;50.968;4.168;2023-08-08T08:42:26;15.18;;;3.42;;
19436;SDS011;9854;50.968;4.168;2023-08-08T08:44:54;7.57;;;3.00;;
19436;SDS011;9854;50.968;4.168;2023-08-08T08:47:22;10.57;;;3.30;;
19436;SDS011;9854;50.968;4.168;2023-08-08T08:49:50;10.27;;;2.75;;
19436;SDS011;9854;50.968;4.168;2023-08-08T08:52:17;11.32;;;3.25;;
19436;SDS011;9854;50.968;4.168;2023-08-08T08:54:43;12.30;;;2.97;;
19436;SDS011;9854;50.968;4.168;2023-08-08T08:57:09;7.18;;;3.17;;
19436;SDS011;9854;50.968;4.168;2023-08-08T08:59:35;8.77;;;2.90;;
19436;SDS011;9854;50.968;4.168;2023-08-08T09:02:01;6.05;;;2.60;;
19436;SDS011;9854;50.968;4.168;2023-08-08T09:04:27;5.80;;;2.53;;
19436;SDS011;9854;50.968;4.168;2023-08-08T09:06:53;7.85;;;2.67;;
19436;SDS011;9854;50.968;4.168;2023-08-08T09:09:19;11.82;;;3.42;;
19436;SDS011;9854;50.968;4.168;2023-08-08T09:11:48;8.82;;;2.83;;
19436;SDS011;9854;50.968;4.168;2023-08-08T09:14:16;8.23;;;3.13;;
19436;SDS011;9854;50.968;4.168;2023-08-08T09:16:46;7.25;;;2.60;;
19436;SDS011;9854;50.968;4.168;2023-08-08T09:19:15;9.05;;;3.10;;
19436;SDS011;9854;50.968;4.168;2023-08-08T09:21:43;6.93;;;2.72;;
19436;SDS011;9854;50.968;4.168;2023-08-08T09:24:09;8.30;;;2.65;;
19436;SDS011;9854;50.968;4.168;2023-08-08T09:26:35;6.82;;;2.53;;
19436;SDS011;9854;50.968;4.168;2023-08-08T09:29:01;11.02;;;2.92;;
19436;SDS011;9854;50.968;4.168;2023-08-08T09:31:27;10.65;;;2.70;;
19436;SDS011;9854;50.968;4.168;2023-08-08T09:33:55;8.65;;;2.75;;
19436;SDS011;9854;50.968;4.168;2023-08-08T09:36:22;4.75;;;2.20;;
19436;SDS011;9854;50.968;4.168;2023-08-08T09:38:49;5.45;;;2.53;;
19436;SDS011;9854;50.968;4.168;2023-08-08T09:41:16;5.38;;;2.30;;
19436;SDS011;9854;50.968;4.168;2023-08-08T09:43:44;8.27;;;2.45;;
19436;SDS011;9854;50.968;4.168;2023-08-08T09:46:10;10.05;;;2.55;;
19436;SDS011;9854;50.968;4.168;2023-08-08T09:48:35;7.18;;;2.55;;
19436;SDS011;9854;50.968;4.168;2023-08-08T09:51:06;9.65;;;2.63;;
19436;SDS011;9854;50.968;4.168;2023-08-08T09:53:32;7.90;;;2.70;;
19436;SDS011;9854;50.968;4.168;2023-08-08T09:55:59;7.07;;;2.60;;
19436;SDS011;9854;50.968;4.168;2023-08-08T09:58:28;9.65;;;2.80;;
19436;SDS011;9854;50.968;4.168;2023-08-08T10:00:54;9.07;;;2.35;;
19436;SDS011;9854;50.968;4.168;2023-08-08T10:03:20;10.50;;;2.58;;
19436;SDS011;9854;50.968;4.168;2023-08-08T10:05:47;6.40;;;2.50;;
19436;SDS011;9854;50.968;4.168;2023-08-08T10:08:16;5.68;;;2.45;;
19436;SDS011;9854;50.968;4.168;2023-08-08T10:10:45;4.55;;;2.30;;
19436;SDS011;9854;50.968;4.168;2023-08-08T10:13:23;7.40;;;2.92;;
19436;SDS011;9854;50.968;4.168;2023-08-08T10:15:50;4.78;;;2.70;;
19436;SDS011;9854;50.968;4.168;2023-08-08T10:18:16;9.93;;;2.67;;
19436;SDS011;9854;50.968;4.168;2023-08-08T10:20:43;3.60;;;2.30;;
19436;SDS011;9854;50.968;4.168;2023-08-08T10:23:14;3.45;;;2.13;;
19436;SDS011;9854;50.968;4.168;2023-08-08T10:25:46;3.97;;;2.70;;
19436;SDS011;9854;50.968;4.168;2023-08-08T10:28:17;4.85;;;2.40;;
19436;SDS011;9854;50.968;4.168;2023-08-08T10:30:57;5.85;;;2.55;;
19436;SDS011;9854;50.968;4.168;2023-08-08T10:33:24;4.63;;;1.92;;
19436;SDS011;9854;50.968;4.168;2023-08-08T10:35:57;8.07;;;2.55;;
19436;SDS011;9854;50.968;4.168;2023-08-08T10:38:38;5.47;;;2.25;;
19436;SDS011;9854;50.968;4.168;2023-08-08T10:41:17;4.85;;;2.00;;
19436;SDS011;9854;50.968;4.168;2023-08-08T10:46:25;5.93;;;2.50;;
19436;SDS011;9854;50.968;4.168;2023-08-08T10:48:53;6.65;;;2.47;;
19436;SDS011;9854;50.968;4.168;2023-08-08T10:51:21;6.07;;;2.40;;
19436;SDS011;9854;50.968;4.168;2023-08-08T10:53:50;6.50;;;2.67;;
19436;SDS011;9854;50.968;4.168;2023-08-08T10:56:18;7.50;;;1.88;;
19436;SDS011;9854;50.968;4.168;2023-08-08T10:58:48;4.32;;;1.58;;
19436;SDS011;9854;50.968;4.168;2023-08-08T11:01:14;6.50;;;2.10;;
19436;SDS011;9854;50.968;4.168;2023-08-08T11:03:42;4.78;;;1.50;;
19436;SDS011;9854;50.968;4.168;2023-08-08T11:06:08;5.45;;;1.95;;
19436;SDS011;9854;50.968;4.168;2023-08-08T11:08:35;7.20;;;1.80;;
19436;SDS011;9854;50.968;4.168;2023-08-08T11:11:03;4.07;;;1.67;;
19436;SDS011;9854;50.968;4.168;2023-08-08T11:13:29;2.17;;;1.65;;
19436;SDS011;9854;50.968;4.168;2023-08-08T11:15:55;2.15;;;1.30;;
19436;SDS011;9854;50.968;4.168;2023-08-08T11:18:21;2.88;;;1.58;;
19436;SDS011;9854;50.968;4.168;2023-08-08T11:20:48;2.75;;;1.58;;
19436;SDS011;9854;50.968;4.168;2023-08-08T11:23:14;5.05;;;1.63;;
19436;SDS011;9854;50.968;4.168;2023-08-08T11:25:41;3.97;;;1.73;;
19436;SDS011;9854;50.968;4.168;2023-08-08T11:28:08;5.63;;;1.55;;
19436;SDS011;9854;50.968;4.168;2023-08-08T11:30:37;2.97;;;1.80;;
19436;SDS011;9854;50.968;4.168;2023-08-08T11:33:04;4.72;;;1.92;;
19436;SDS011;9854;50.968;4.168;2023-08-08T11:35:31;4.68;;;1.90;;
19436;SDS011;9854;50.968;4.168;2023-08-08T11:37:57;4.07;;;2.20;;
19436;SDS011;9854;50.968;4.168;2023-08-08T11:40:24;4.95;;;2.00;;
19436;SDS011;9854;50.968;4.168;2023-08-08T11:42:53;6.18;;;1.73;;
19436;SDS011;9854;50.968;4.168;2023-08-08T11:45:20;6.22;;;2.00;;
19436;SDS011;9854;50.968;4.168;2023-08-08T11:47:50;5.70;;;1.90;;
19436;SDS011;9854;50.968;4.168;2023-08-08T11:50:18;3.28;;;1.40;;
19436;SDS011;9854;50.968;4.168;2023-08-08T11:52:48;1.98;;;1.40;;
19436;SDS011;9854;50.968;4.168;2023-08-08T11:55:16;2.45;;;1.67;;
19436;SDS011;9854;50.968;4.168;2023-08-08T11:57:46;5.07;;;1.67;;
19436;SDS011;9854;50.968;4.168;2023-08-08T12:00:11;2.42;;;1.42;;
19436;SDS011;9854;50.968;4.168;2023-08-08T12:02:38;4.10;;;1.50;;
19436;SDS011;9854;50.968;4.168;2023-08-08T12:05:07;6.28;;;1.45;;
19436;SDS011;9854;50.968;4.168;2023-08-08T12:07:38;5.68;;;1.33;;
19436;SDS011;9854;50.968;4.168;2023-08-08T12:10:16;4.15;;;1.30;;
19436;SDS011;9854;50.968;4.168;2023-08-08T12:12:44;4.63;;;1.35;;
19436;SDS011;9854;50.968;4.168;2023-08-08T12:15:11;4.95;;;1.42;;
19436;SDS011;9854;50.968;4.168;2023-08-08T12:17:38;4.13;;;1.30;;
19436;SDS011;9854;50.968;4.168;2023-08-08T12:20:05;2.85;;;1.13;;
19436;SDS011;9854;50.968;4.168;2023-08-08T12:22:32;1.58;;;1.00;;
19436;SDS011;9854;50.968;4.168;2023-08-08T12:24:58;4.63;;;1.35;;
19436;SDS011;9854;50.968;4.168;2023-08-08T12:27:24;3.42;;;1.40;;
19436;SDS011;9854;50.968;4.168;2023-08-08T12:29:50;3.00;;;1.30;;
19436;SDS011;9854;50.968;4.168;2023-08-08T12:32:16;4.28;;;1.20;;
19436;SDS011;9854;50.968;4.168;2023-08-08T12:34:48;2.97;;;1.45;;
19436;SDS011;9854;50.968;4.168;2023-08-08T12:37:14;4.82;;;1.13;;
19436;SDS011;9854;50.968;4.168;2023-08-08T12:39:40;2.67;;;1.25;;
19436;SDS011;9854;50.968;4.168;2023-08-08T12:42:06;4.57;;;1.25;;
19436;SDS011;9854;50.968;4.168;2023-08-08T12:44:31;4.55;;;1.00;;
19436;SDS011;9854;50.968;4.168;2023-08-08T12:46:57;4.00;;;1.25;;
19436;SDS011;9854;50.968;4.168;2023-08-08T12:49:23;3.15;;;1.13;;
19436;SDS011;9854;50.968;4.168;2023-08-08T12:51:49;2.67;;;0.90;;
19436;SDS011;9854;50.968;4.168;2023-08-08T12:54:16;3.47;;;1.08;;
19436;SDS011;9854;50.968;4.168;2023-08-08T12:56:41;1.30;;;0.88;;
19436;SDS011;9854;50.968;4.168;2023-08-08T12:59:08;4.18;;;1.00;;
19436;SDS011;9854;50.968;4.168;2023-08-08T13:01:34;2.15;;;0.95;;
19436;SDS011;9854;50.968;4.168;2023-08-08T13:04:00;5.70;;;1.17;;
19436;SDS011;9854;50.968;4.168;2023-08-08T13:06:25;4.22;;;1.05;;
19436;SDS011;9854;50.968;4.168;2023-08-08T13:08:51;5.18;;;0.85;;
19436;SDS011;9854;50.968;4.168;2023-08-08T13:11:16;2.63;;;1.10;;
19436;SDS011;9854;50.968;4.168;2023-08-08T13:13:42;3.15;;;1.10;;
19436;SDS011;9854;50.968;4.168;2023-08-08T13:16:08;3.67;;;1.10;;
19436;SDS011;9854;50.968;4.168;2023-08-08T13:18:33;4.07;;;1.00;;
19436;SDS011;9854;50.968;4.168;2023-08-08T13:20:59;2.63;;;1.10;;
19436;SDS011;9854;50.968;4.168;2023-08-08T13:23:24;5.85;;;1.05;;
19436;SDS011;9854;50.968;4.168;2023-08-08T13:25:50;3.47;;;1.33;;
19436;SDS011;9854;50.968;4.168;2023-08-08T13:28:16;5.03;;;1.40;;
19436;SDS011;9854;50.968;4.168;2023-08-08T13:30:42;2.55;;;1.20;;
19436;SDS011;9854;50.968;4.168;2023-08-08T13:33:08;4.25;;;1.48;;
19436;SDS011;9854;50.968;4.168;2023-08-08T13:35:34;2.58;;;0.95;;
19436;SDS011;9854;50.968;4.168;2023-08-08T13:38:00;2.22;;;1.00;;
19436;SDS011;9854;50.968;4.168;2023-08-08T13:40:26;1.45;;;1.10;;
19436;SDS011;9854;50.968;4.168;2023-08-08T13:42:52;3.22;;;1.15;;
19436;SDS011;9854;50.968;4.168;2023-08-08T13:45:18;3.10;;;1.25;;
19436;SDS011;9854;50.968;4.168;2023-08-08T13:47:45;3.38;;;0.90;;
19436;SDS011;9854;50.968;4.168;2023-08-08T13:50:11;1.45;;;0.90;;
19436;SDS011;9854;50.968;4.168;2023-08-08T13:52:38;3.45;;;0.80;;
19436;SDS011;9854;50.968;4.168;2023-08-08T13:55:05;1.77;;;1.10;;
19436;SDS011;9854;50.968;4.168;2023-08-08T13:57:31;1.77;;;0.80;;
19436;SDS011;9854;50.968;4.168;2023-08-08T13:59:57;1.63;;;1.13;;
19436;SDS011;9854;50.968;4.168;2023-08-08T14:02:23;2.33;;;0.80;;
19436;SDS011;9854;50.968;4.168;2023-08-08T14:04:48;1.55;;;0.82;;
19436;SDS011;9854;50.968;4.168;2023-08-08T14:07:14;2.38;;;0.85;;
19436;SDS011;9854;50.968;4.168;2023-08-08T14:09:40;2.30;;;0.80;;
19436;SDS011;9854;50.968;4.168;2023-08-08T14:12:05;2.90;;;0.85;;
19436;SDS011;9854;50.968;4.168;2023-08-08T14:14:31;2.30;;;0.93;;
19436;SDS011;9854;50.968;4.168;2023-08-08T14:16:57;3.63;;;1.13;;
19436;SDS011;9854;50.968;4.168;2023-08-08T14:19:22;2.05;;;1.10;;
19436;SDS011;9854;50.968;4.168;2023-08-08T14:21:48;1.67;;;0.95;;
19436;SDS011;9854;50.968;4.168;2023-08-08T14:24:14;1.60;;;0.90;;
19436;SDS011;9854;50.968;4.168;2023-08-08T14:26:40;1.70;;;1.30;;
19436;SDS011;9854;50.968;4.168;2023-08-08T14:29:06;2.33;;;1.30;;
19436;SDS011;9854;50.968;4.168;2023-08-08T14:31:31;2.20;;;1.02;;
19436;SDS011;9854;50.968;4.168;2023-08-08T14:33:57;1.58;;;0.90;;
19436;SDS011;9854;50.968;4.168;2023-08-08T14:36:23;2.05;;;1.10;;
19436;SDS011;9854;50.968;4.168;2023-08-08T14:38:48;1.60;;;1.00;;
19436;SDS011;9854;50.968;4.168;2023-08-08T14:41:14;4.20;;;0.82;;
19436;SDS011;9854;50.968;4.168;2023-08-08T14:43:40;4.63;;;0.90;;
19436;SDS011;9854;50.968;4.168;2023-08-08T14:46:05;4.03;;;0.85;;
19436;SDS011;9854;50.968;4.168;2023-08-08T14:48:31;5.20;;;1.15;;
19436;SDS011;9854;50.968;4.168;2023-08-08T14:50:57;4.35;;;1.30;;
19436;SDS011;9854;50.968;4.168;2023-08-08T14:53:24;3.63;;;1.00;;